Terminal Aerodrome Forecast
Issued by NWS

Home | Current Version | Previous Version | Text Only | Print | Product List | Glossary On
Versions: 1 2 3 4 5 6 7 8 9 10 11 12 13 14 15
000
FTUS44 KTSA 281140
TAFBVO
TAF
KBVO 281140Z 2812/2912 00000KT P6SM FEW100
      TEMPO 2812/2813 1SM BR SCT002
     FM281400 VRB04KT P6SM FEW030 SCT100
     FM281900 VRB06KT P6SM VCTS SCT050CB SCT250
     FM290100 VRB02KT P6SM BKN070 PROB30 2906/2912 34011KT 5SM -TSRA
      BKN050CB=

USA.gov is the U.S. government's official web portal to all federal, state and local government web resources and services.